Linden, Pennsylvania
Current Conditions -  °F | °C
As of 7:07 AM on Monday 26 Jan 2015 (Local Time) from KIPT Reporting Station
Light Snow Light Snow  
Wind Chill: 18°   Ceiling: 3400
Heat Index: 18°   Visibility: 3mi
Dew Point: 12°   Wind: 0mph
Humidity: 78%   Direction: NA
Pressure: 29.91"   Gusts: NA
Location:  41.23°N, 77.13°W
Report Text: KIPT 261207Z 00000KT 3SM -SN FEW026 OVC034 M08/M11 A2991 RMK AO2 P0001 T10781111
Loading
Personal Weather Stations






























Interactive Weather Map New forecast layout! Learn more

10-Day Weather Forecast

Advertisements
Track Severe Weather on mobile